KCRW/CRW METAR and TAF weather

Enter ICAO airport designator
Station Type Date Time Source
KCRW METAR 2021/03/01 02:54 UTC NOAA

KCRW 010254Z 21008KT 8SM RA FEW029 BKN055 OVC090 16/14 A2985 RMK AO2 SLP106 P0008 60041 T01560144 52001 $


Station Type Date Time Source
KCRW Decoded METAR 2021/03/01 02:54 UTC NOAA

YEAGER AIRPORT, WV, United States (KCRW) 38-22N 081-36W 309M
Feb 28, 2021 - 09:54 PM EST / 2021.03.01 0254 UTC
Wind: from the SSW (210 degrees) at 9 MPH (8 KT):0
Visibility: 8 mile(s):0
Sky conditions: overcast
Weather: rain
Precipitation last hour: 0.08 inches
Temperature: 60.1 F (15.6 C)
Dew Point: 57.9 F (14.4 C)
Relative Humidity: 92%
Pressure (altimeter): 29.85 in. Hg (1010 hPa)
Pressure tendency: 0.00 inches (0.1 hPa) higher than three hours ago
ob: KCRW 010254Z 21008KT 8SM RA FEW029 BKN055 OVC090 16/14 A2985 RMK AO2 SLP106 P0008 60041 T01560144 52001
cycle: 3

Station Type Date Time Source
KCRW TAF 2021/03/01 03:04 UTC NOAA

TAF
AMD KCRW 010301Z 0103/0124 21007KT 6SM RA OVC035
TEMPO 0103/0107 3SM RA BKN015
FM010700 26006KT 2SM RA OVC009
FM011100 29008G17KT 4SM RA OVC010
FM011400 31009G17KT P6SM OVC020
FM012000 30011G18KT P6SM BKN200

Example: see airport list